KHQM

Bowerman Airport

Hoquiam, Washington, USA
METAR KHQM 110253Z AUTO 12008KT 9SM CLR 09/07 A3019 RMK AO2 SLP227 T00890072 58012
Observed Flight Rules
Dec-11 @ 02:53 UTC (31 minutes ago) Visual Flight Rules
Wind Visibility Clouds
120° at 8 knots 9 miles
  • Clear skies
Temperatures Readings
Current 9°C / 48°F
Dewpoint 7°C / 45°F
Humidity 87%
Altimeter 30.19" Hg
Pressure 1022.7 hPa
Elevation 7
METAR KHQM 110253Z AUTO 12008KT 9SM CLR 09/07 A3019 RMK AO2 SLP227 T00890072 58012
Observed Flight Rules
Dec-11 @ 02:53 UTC
(31 minutes ago)
VFR
Wind Visibility
120° at 8 knots 9 miles
Clouds
  • Clear skies
Temperature Dewpoint
9°C / 48°F 7°C / 45°F
Humidity Altimeter Pressure
87% 30.19" Hg 1022.7 hPa